Time;durP1;ratioP1;P1;durP2;ratioP2;P2;SDS_P1;SDS_P2;PMS_P1;PMS_P2;Temp;Humidity;BMP_temperature;BMP_pressure;BME280_temperature;BME280_humidity;BME280_pressure;Samples;Min_cycle;Max_cycle;Signal;HPM_P1;HPM_P2
2023/10/07 00:01:01;;;;;;;3.60;1.45;;;;;;;;;;5261590;28;20025;-80
2023/10/07 00:03:34;;;;;;;4.05;1.17;;;;;;;;;;5262364;28;20079;-80
2023/10/07 00:06:10;;;;;;;5.28;1.30;;;;;;;;;;5262060;28;20029;-79
2023/10/07 00:08:41;;;;;;;3.40;1.10;;;;;;;;;;5261893;28;20337;-80
2023/10/07 00:11:16;;;;;;;8.55;2.22;;;;;;;;;;5261905;28;20035;-80
2023/10/07 00:13:48;;;;;;;4.03;1.23;;;;;;;;;;5261677;28;20040;-80
2023/10/07 00:16:23;;;;;;;6.53;1.48;;;;;;;;;;5261648;28;20021;-79
2023/10/07 00:18:54;;;;;;;4.82;1.88;;;;;;;;;;5261869;28;20044;-80
2023/10/07 00:21:44;;;;;;;5.13;1.30;;;;;;;;;;5260963;28;20025;-79
2023/10/07 00:24:17;;;;;;;6.22;1.58;;;;;;;;;;5262068;28;20108;-80
2023/10/07 00:26:48;;;;;;;5.47;1.17;;;;;;;;;;5261647;28;20079;-80
2023/10/07 00:29:23;;;;;;;5.07;1.13;;;;;;;;;;5261239;28;20017;-80
2023/10/07 00:31:56;;;;;;;6.03;1.80;;;;;;;;;;5261364;28;20545;-80
2023/10/07 00:34:27;;;;;;;6.00;1.85;;;;;;;;;;5261772;28;20032;-79
2023/10/07 00:36:58;;;;;;;5.68;1.77;;;;;;;;;;5260974;28;20016;-80
2023/10/07 00:39:31;;;;;;;7.63;1.90;;;;;;;;;;5261659;28;20086;-80
2023/10/07 00:42:07;;;;;;;6.53;1.50;;;;;;;;;;5261573;28;20376;-79
2023/10/07 00:44:39;;;;;;;5.35;1.80;;;;;;;;;;5261229;28;20121;-80
2023/10/07 00:47:13;;;;;;;6.88;1.73;;;;;;;;;;5261447;28;20503;-80
2023/10/07 00:52:28;;;;;;;5.93;1.85;;;;;;;;;;5261618;28;20460;-80
2023/10/07 01:02:51;;;;;;;7.75;2.33;;;;;;;;;;5260871;28;20489;-79
2023/10/07 01:05:25;;;;;;;8.65;2.45;;;;;;;;;;5260555;28;20467;-79
2023/10/07 01:07:58;;;;;;;8.85;2.30;;;;;;;;;;5261039;28;20017;-79
2023/10/07 01:10:31;;;;;;;6.50;2.10;;;;;;;;;;5260440;28;20107;-79
2023/10/07 01:13:03;;;;;;;9.18;2.10;;;;;;;;;;5261010;28;20013;-79
2023/10/07 01:15:35;;;;;;;9.88;2.25;;;;;;;;;;5260906;28;20035;-79
2023/10/07 01:18:06;;;;;;;5.72;1.90;;;;;;;;;;5260333;28;20021;-79
2023/10/07 01:20:58;;;;;;;5.65;2.28;;;;;;;;;;5260607;28;20021;-79
2023/10/07 01:23:34;;;;;;;6.50;2.40;;;;;;;;;;5260644;28;20021;-78
2023/10/07 01:26:15;;;;;;;8.23;2.78;;;;;;;;;;5260023;28;20027;-79
2023/10/07 01:28:46;;;;;;;7.13;2.40;;;;;;;;;;5260839;28;20100;-79
2023/10/07 01:31:20;;;;;;;6.40;2.85;;;;;;;;;;5261292;28;20132;-79
2023/10/07 01:33:51;;;;;;;7.03;2.40;;;;;;;;;;5260150;28;20017;-79
2023/10/07 01:36:24;;;;;;;12.10;3.03;;;;;;;;;;5260813;28;20361;-80
2023/10/07 01:38:55;;;;;;;7.10;2.70;;;;;;;;;;5260366;28;20489;-80
2023/10/07 01:41:30;;;;;;;8.83;2.27;;;;;;;;;;5260944;28;20021;-80
2023/10/07 01:44:04;;;;;;;10.05;3.17;;;;;;;;;;5260673;28;20374;-80
2023/10/07 01:46:39;;;;;;;9.00;2.85;;;;;;;;;;5260125;28;20541;-80
2023/10/07 01:49:17;;;;;;;5.55;2.95;;;;;;;;;;5260649;28;20025;-80
2023/10/07 01:51:51;;;;;;;7.90;2.75;;;;;;;;;;5260530;28;20009;-79
2023/10/07 01:54:28;;;;;;;10.15;3.53;;;;;;;;;;5260270;28;20024;-79
2023/10/07 01:57:04;;;;;;;7.88;3.42;;;;;;;;;;5260848;28;20371;-79
2023/10/07 01:59:36;;;;;;;8.70;4.25;;;;;;;;;;5259835;28;21017;-79
2023/10/07 02:02:09;;;;;;;9.98;3.88;;;;;;;;;;5260602;28;20067;-79
2023/10/07 02:04:40;;;;;;;9.30;3.80;;;;;;;;;;5263471;28;20025;-79
2023/10/07 02:07:11;;;;;;;13.73;4.20;;;;;;;;;;5263811;28;20533;-78
2023/10/07 02:09:42;;;;;;;8.20;4.13;;;;;;;;;;5264575;28;20120;-78
2023/10/07 02:12:18;;;;;;;7.05;4.25;;;;;;;;;;5264650;28;20021;-79
2023/10/07 02:14:49;;;;;;;7.35;4.18;;;;;;;;;;5263340;28;20105;-80
2023/10/07 02:17:25;;;;;;;13.00;4.57;;;;;;;;;;5264801;28;20532;-79
2023/10/07 02:20:09;;;;;;;8.90;4.47;;;;;;;;;;5264324;28;20372;-80
2023/10/07 02:22:40;;;;;;;9.50;4.72;;;;;;;;;;5263554;28;20013;-79
2023/10/07 02:25:11;;;;;;;7.45;4.78;;;;;;;;;;5264297;28;20021;-79
2023/10/07 02:27:48;;;;;;;8.77;4.07;;;;;;;;;;5263470;28;20135;-79
2023/10/07 02:30:19;;;;;;;10.15;5.18;;;;;;;;;;5264465;28;20537;-79
2023/10/07 02:32:51;;;;;;;8.32;4.47;;;;;;;;;;5263467;28;20045;-79
2023/10/07 02:35:30;;;;;;;9.13;5.15;;;;;;;;;;5263623;28;20097;-79
2023/10/07 02:38:03;;;;;;;6.95;5.13;;;;;;;;;;5264049;28;20128;-79
2023/10/07 02:40:48;;;;;;;12.90;6.25;;;;;;;;;;5264046;28;20533;-79
2023/10/07 02:43:20;;;;;;;11.13;7.15;;;;;;;;;;5263306;28;20020;-79
2023/10/07 02:45:51;;;;;;;9.00;5.78;;;;;;;;;;5263714;28;20021;-79
2023/10/07 02:48:22;;;;;;;8.82;6.07;;;;;;;;;;5264151;28;20108;-79
2023/10/07 02:50:54;;;;;;;11.07;7.30;;;;;;;;;;5262860;28;20017;-79
2023/10/07 02:53:25;;;;;;;11.93;6.60;;;;;;;;;;5263596;28;20071;-79
2023/10/07 02:55:58;;;;;;;13.27;7.82;;;;;;;;;;5262800;28;20021;-78
2023/10/07 02:58:41;;;;;;;11.85;8.07;;;;;;;;;;5263786;28;20029;-79
2023/10/07 03:01:17;;;;;;;14.52;8.02;;;;;;;;;;5263703;28;20056;-79
2023/10/07 03:03:48;;;;;;;14.60;8.25;;;;;;;;;;5262449;28;20515;-78
2023/10/07 03:06:25;;;;;;;12.77;8.25;;;;;;;;;;5263757;28;20044;-79
2023/10/07 03:09:00;;;;;;;8.85;6.65;;;;;;;;;;5263675;28;20407;-79
2023/10/07 03:11:48;;;;;;;14.95;8.13;;;;;;;;;;5262677;28;20060;-78
2023/10/07 03:14:26;;;;;;;10.40;8.27;;;;;;;;;;5262809;28;20021;-78
2023/10/07 03:17:00;;;;;;;14.20;8.52;;;;;;;;;;5262077;28;20375;-79
2023/10/07 03:19:45;;;;;;;13.43;7.43;;;;;;;;;;5263101;28;20020;-79
2023/10/07 03:22:17;;;;;;;11.50;8.23;;;;;;;;;;5263325;28;20033;-79
2023/10/07 03:24:54;;;;;;;11.38;7.47;;;;;;;;;;5261810;28;20052;-80
2023/10/07 03:27:38;;;;;;;18.77;9.23;;;;;;;;;;5263310;28;20407;-80
2023/10/07 03:30:13;;;;;;;12.13;8.00;;;;;;;;;;5263123;28;20100;-80
2023/10/07 03:32:54;;;;;;;10.55;8.23;;;;;;;;;;5261783;28;20037;-80
2023/10/07 03:35:59;;;;;;;12.77;8.43;;;;;;;;;;5262775;28;20013;-79
2023/10/07 03:38:28;;;;;;;15.13;7.60;;;;;;;;;;5261672;28;20021;-80
2023/10/07 03:40:59;;;;;;;14.77;8.80;;;;;;;;;;5262806;28;20021;-79
2023/10/07 03:43:34;;;;;;;17.27;9.73;;;;;;;;;;5262609;28;20279;-79
2023/10/07 03:46:06;;;;;;;11.48;8.63;;;;;;;;;;5262041;28;20037;-79
2023/10/07 03:48:39;;;;;;;12.88;8.18;;;;;;;;;;5262661;28;20016;-80
2023/10/07 03:51:12;;;;;;;16.17;10.20;;;;;;;;;;5262607;28;20075;-79
2023/10/07 03:53:46;;;;;;;13.65;9.35;;;;;;;;;;5261671;28;20472;-79
2023/10/07 03:56:20;;;;;;;14.32;10.02;;;;;;;;;;5262703;28;20028;-80
2023/10/07 03:58:53;;;;;;;16.55;10.57;;;;;;;;;;5262292;28;20474;-79
2023/10/07 04:01:26;;;;;;;19.83;10.25;;;;;;;;;;5261648;28;20379;-80
2023/10/07 04:04:00;;;;;;;16.30;10.23;;;;;;;;;;5262193;28;20061;-79
2023/10/07 04:06:32;;;;;;;14.07;8.65;;;;;;;;;;5261266;28;20066;-79
2023/10/07 04:09:06;;;;;;;9.95;8.35;;;;;;;;;;5262247;28;20338;-79
2023/10/07 04:11:38;;;;;;;16.00;10.13;;;;;;;;;;5262243;28;20411;-79
2023/10/07 04:14:28;;;;;;;15.75;10.30;;;;;;;;;;5261434;28;20032;-79
2023/10/07 04:17:00;;;;;;;15.13;9.88;;;;;;;;;;5261824;28;20027;-79
2023/10/07 04:19:38;;;;;;;13.90;9.63;;;;;;;;;;5262190;28;20032;-79
2023/10/07 04:22:09;;;;;;;15.48;10.02;;;;;;;;;;5261199;28;20025;-79
2023/10/07 04:24:44;;;;;;;14.60;9.98;;;;;;;;;;5261746;28;20031;-79
2023/10/07 04:27:19;;;;;;;15.68;10.00;;;;;;;;;;5260803;28;20391;-79
2023/10/07 04:29:51;;;;;;;13.48;9.07;;;;;;;;;;5261384;28;20082;-80
2023/10/07 04:32:23;;;;;;;14.63;9.07;;;;;;;;;;5261877;28;20048;-79
2023/10/07 04:35:16;;;;;;;12.40;9.30;;;;;;;;;;5260898;28;20013;-80
2023/10/07 04:37:47;;;;;;;11.13;8.05;;;;;;;;;;5261298;28;20016;-80
2023/10/07 04:45:49;;;;;;;12.68;8.00;;;;;;;;;;5261623;28;20338;-80
2023/10/07 04:51:13;;;;;;;17.00;8.55;;;;;;;;;;5261843;28;20037;-80
2023/10/07 04:53:57;;;;;;;15.32;8.20;;;;;;;;;;5261179;28;20024;-78
2023/10/07 04:56:32;;;;;;;11.73;7.85;;;;;;;;;;5260524;28;20353;-78
2023/10/07 04:59:06;;;;;;;12.55;6.38;;;;;;;;;;5261525;28;20463;-79
2023/10/07 05:01:41;;;;;;;14.32;7.88;;;;;;;;;;5261441;28;20100;-79
2023/10/07 05:04:15;;;;;;;12.30;7.60;;;;;;;;;;5260299;28;20395;-79
2023/10/07 05:06:46;;;;;;;15.77;7.53;;;;;;;;;;5260674;28;20020;-80
2023/10/07 05:09:21;;;;;;;10.63;6.90;;;;;;;;;;5261415;28;20070;-79
2023/10/07 05:11:53;;;;;;;9.95;6.45;;;;;;;;;;5260512;28;20013;-80
2023/10/07 05:14:25;;;;;;;12.15;6.05;;;;;;;;;;5261170;28;20028;-79
2023/10/07 05:16:58;;;;;;;12.80;6.60;;;;;;;;;;5260086;28;20040;-80
2023/10/07 05:19:32;;;;;;;10.68;6.00;;;;;;;;;;5260736;28;20033;-79
2023/10/07 05:22:16;;;;;;;12.43;6.43;;;;;;;;;;5260983;28;20456;-79
2023/10/07 05:24:51;;;;;;;10.30;5.93;;;;;;;;;;5259771;28;20037;-79
2023/10/07 05:27:23;;;;;;;10.88;5.40;;;;;;;;;;5260978;28;20017;-79
2023/10/07 05:29:56;;;;;;;10.55;6.35;;;;;;;;;;5260604;28;20425;-79
2023/10/07 05:32:27;;;;;;;10.10;5.70;;;;;;;;;;5259715;28;20128;-79
2023/10/07 05:34:59;;;;;;;9.35;5.72;;;;;;;;;;5260874;28;20104;-79
2023/10/07 05:37:30;;;;;;;9.48;5.28;;;;;;;;;;5260398;28;20029;-80
2023/10/07 05:40:03;;;;;;;10.00;5.95;;;;;;;;;;5264151;28;20082;-79
2023/10/07 05:42:35;;;;;;;12.20;6.45;;;;;;;;;;5265097;28;20036;-79
2023/10/07 05:45:08;;;;;;;10.90;6.20;;;;;;;;;;5263937;28;20029;-78
2023/10/07 05:47:39;;;;;;;10.73;5.68;;;;;;;;;;5264958;28;20475;-78
2023/10/07 05:50:12;;;;;;;12.18;5.88;;;;;;;;;;5265133;28;20013;-79
2023/10/07 05:52:43;;;;;;;12.93;5.85;;;;;;;;;;5263907;28;20104;-79
2023/10/07 05:55:15;;;;;;;11.43;5.95;;;;;;;;;;5264864;28;20151;-79
2023/10/07 05:57:47;;;;;;;11.48;5.43;;;;;;;;;;5264515;28;20017;-79
2023/10/07 06:00:21;;;;;;;10.05;5.10;;;;;;;;;;5264340;28;20074;-79
2023/10/07 06:02:53;;;;;;;8.00;4.57;;;;;;;;;;5264340;28;20017;-79
2023/10/07 06:05:27;;;;;;;10.80;5.68;;;;;;;;;;5264386;28;20037;-80
2023/10/07 06:07:58;;;;;;;8.82;5.05;;;;;;;;;;5263796;28;20486;-79
2023/10/07 06:10:33;;;;;;;12.03;4.90;;;;;;;;;;5264536;28;20059;-79
2023/10/07 06:13:08;;;;;;;10.55;5.30;;;;;;;;;;5263613;28;20279;-79
2023/10/07 06:15:39;;;;;;;13.63;5.18;;;;;;;;;;5264239;28;20024;-78
2023/10/07 06:18:11;;;;;;;11.85;5.22;;;;;;;;;;5264155;28;20013;-78
2023/10/07 06:20:46;;;;;;;10.85;4.93;;;;;;;;;;5263502;28;20495;-78
2023/10/07 06:23:18;;;;;;;8.70;4.72;;;;;;;;;;5264454;28;20021;-79
2023/10/07 06:25:50;;;;;;;9.80;4.95;;;;;;;;;;5263650;28;20025;-79
2023/10/07 06:31:00;;;;;;;12.03;5.77;;;;;;;;;;5264137;28;20060;-78
2023/10/07 06:33:31;;;;;;;12.30;5.30;;;;;;;;;;5264007;28;20445;-78
2023/10/07 06:36:03;;;;;;;8.52;4.75;;;;;;;;;;5263228;28;20074;-77
2023/10/07 06:38:34;;;;;;;8.93;4.22;;;;;;;;;;5263667;28;20013;-77
2023/10/07 06:41:12;;;;;;;8.97;4.73;;;;;;;;;;5263308;28;20588;-78
2023/10/07 06:43:43;;;;;;;7.50;4.15;;;;;;;;;;5264092;28;20375;-77
2023/10/07 06:46:14;;;;;;;10.90;4.57;;;;;;;;;;5264007;28;20131;-77
2023/10/07 06:48:49;;;;;;;9.30;4.95;;;;;;;;;;5262219;28;20021;-79
2023/10/07 06:51:20;;;;;;;9.20;4.75;;;;;;;;;;5246198;28;20028;-78
2023/10/07 06:53:52;;;;;;;10.15;4.20;;;;;;;;;;5263513;28;20017;-80
2023/10/07 06:56:24;;;;;;;10.20;4.32;;;;;;;;;;5262980;28;20029;-80
2023/10/07 06:58:59;;;;;;;13.55;5.35;;;;;;;;;;5263305;28;20098;-80
2023/10/07 07:01:36;;;;;;;7.65;4.60;;;;;;;;;;5263363;28;20483;-80
2023/10/07 07:04:11;;;;;;;8.85;4.15;;;;;;;;;;5262375;28;20017;-80
2023/10/07 07:06:46;;;;;;;6.78;3.42;;;;;;;;;;5263598;28;20021;-80
2023/10/07 07:12:11;;;;;;;10.63;4.32;;;;;;;;;;5263466;28;20036;-80
2023/10/07 07:14:46;;;;;;;11.48;4.90;;;;;;;;;;5263317;28;20357;-81
2023/10/07 07:17:35;;;;;;;12.15;4.47;;;;;;;;;;5262324;28;20017;-81
2023/10/07 07:22:45;;;;;;;11.02;4.45;;;;;;;;;;5262999;28;20025;-81
2023/10/07 07:25:29;;;;;;;11.18;4.35;;;;;;;;;;5262324;28;20060;-79
2023/10/07 07:28:01;;;;;;;9.70;3.95;;;;;;;;;;5262614;28;20053;-80
2023/10/07 07:30:35;;;;;;;9.40;4.15;;;;;;;;;;5261753;28;20432;-79
2023/10/07 07:33:08;;;;;;;9.88;4.32;;;;;;;;;;5262629;28;20063;-80
2023/10/07 07:35:51;;;;;;;9.13;4.30;;;;;;;;;;5262815;28;20013;-81
2023/10/07 07:41:01;;;;;;;8.57;4.03;;;;;;;;;;5262468;28;20013;-80
2023/10/07 07:43:34;;;;;;;9.88;3.55;;;;;;;;;;5262539;28;20021;-80
2023/10/07 07:48:48;;;;;;;7.53;3.70;;;;;;;;;;5262087;28;20021;-79
2023/10/07 07:51:24;;;;;;;7.78;4.30;;;;;;;;;;5261850;28;20016;-80
2023/10/07 07:53:58;;;;;;;8.32;3.67;;;;;;;;;;5262511;28;20100;-79
2023/10/07 07:56:30;;;;;;;7.10;3.83;;;;;;;;;;5262402;28;20028;-79
2023/10/07 07:59:13;;;;;;;8.80;4.70;;;;;;;;;;5261536;28;20063;-79
2023/10/07 08:01:45;;;;;;;8.85;3.67;;;;;;;;;;5261359;28;20025;-80
2023/10/07 08:04:37;;;;;;;7.13;3.42;;;;;;;;;;5262280;28;20035;-79
2023/10/07 08:07:24;;;;;;;10.27;4.30;;;;;;;;;;5261553;28;20013;-80
2023/10/07 08:10:03;;;;;;;6.88;3.88;;;;;;;;;;5261922;28;20100;-79
2023/10/07 08:12:36;;;;;;;9.80;3.60;;;;;;;;;;5261516;28;20757;-79
2023/10/07 08:17:50;;;;;;;9.10;4.38;;;;;;;;;;5262009;28;20361;-78
2023/10/07 08:20:33;;;;;;;6.95;3.50;;;;;;;;;;5261591;28;20025;-79
2023/10/07 08:23:22;;;;;;;6.65;3.30;;;;;;;;;;5260549;28;20432;-78
2023/10/07 08:26:10;;;;;;;;;;;;;;;;;;5282419;28;20033;-78
2023/10/07 08:28:43;;;;;;;8.32;3.42;;;;;;;;;;5281520;28;19970;-75
2023/10/07 08:34:09;;;;;;;8.25;3.38;;;;;;;;;;5280793;28;20379;-78
2023/10/07 08:36:43;;;;;;;8.18;4.15;;;;;;;;;;5281482;28;20020;-75
2023/10/07 08:39:19;;;;;;;8.30;3.85;;;;;;;;;;5281590;28;20025;-76
2023/10/07 08:41:52;;;;;;;10.27;3.63;;;;;;;;;;5281441;28;20099;-75
2023/10/07 08:44:31;;;;;;;7.10;3.08;;;;;;;;;;5282308;28;20035;-76
2023/10/07 08:47:05;;;;;;;;;;;;;;;;;;5282816;28;20489;-78
2023/10/07 08:49:38;;;;;;;7.82;3.35;;;;;;;;;;5281298;28;19912;-78
2023/10/07 08:52:09;;;;;;;7.75;2.67;;;;;;;;;;5282060;28;20013;-79
2023/10/07 08:54:44;;;;;;;5.47;2.53;;;;;;;;;;5281378;28;20474;-79
2023/10/07 08:57:19;;;;;;;7.32;3.13;;;;;;;;;;5282419;28;20455;-79
2023/10/07 08:59:52;;;;;;;7.63;2.83;;;;;;;;;;5281820;28;20142;-79
2023/10/07 09:02:26;;;;;;;6.57;2.88;;;;;;;;;;5281328;28;20111;-79
2023/10/07 09:04:58;;;;;;;8.52;3.28;;;;;;;;;;5281685;28;20033;-79
2023/10/07 09:07:32;;;;;;;7.00;3.15;;;;;;;;;;5282058;28;20494;-79
2023/10/07 09:10:13;;;;;;;8.27;2.80;;;;;;;;;;5281102;28;20039;-79
2023/10/07 09:12:50;;;;;;;8.90;3.05;;;;;;;;;;5281430;28;20020;-79
2023/10/07 09:15:25;;;;;;;6.28;2.20;;;;;;;;;;5282040;28;20021;-79
2023/10/07 09:17:59;;;;;;;9.50;3.05;;;;;;;;;;5281010;28;20031;-79
2023/10/07 09:20:31;;;;;;;6.55;2.42;;;;;;;;;;5282009;28;20372;-80
2023/10/07 09:23:15;;;;;;;11.23;3.03;;;;;;;;;;5280993;28;20023;-79
2023/10/07 09:25:50;;;;;;;8.43;2.33;;;;;;;;;;5281404;28;20029;-80
2023/10/07 09:28:31;;;;;;;4.78;2.10;;;;;;;;;;5283224;28;20020;-80
2023/10/07 09:31:09;;;;;;;4.93;2.00;;;;;;;;;;5283662;28;20032;-80
2023/10/07 09:33:41;;;;;;;9.27;2.57;;;;;;;;;;5284352;28;20070;-80
2023/10/07 09:41:55;;;;;;;6.50;2.17;;;;;;;;;;5283840;28;20036;-80
2023/10/07 09:44:26;;;;;;;7.03;1.70;;;;;;;;;;5282479;28;20115;-80
2023/10/07 09:47:10;;;;;;;5.93;1.95;;;;;;;;;;5282256;28;20419;-79
2023/10/07 09:49:44;;;;;;;7.85;1.83;;;;;;;;;;5282627;28;20032;-79
2023/10/07 09:52:17;;;;;;;7.47;2.03;;;;;;;;;;5282620;28;20087;-79
2023/10/07 09:55:18;;;;;;;17.00;2.83;;;;;;;;;;5282574;28;20031;-78
2023/10/07 09:58:00;;;;;;;5.97;1.75;;;;;;;;;;5282791;28;20021;-79
2023/10/07 10:01:02;;;;;;;4.68;1.85;;;;;;;;;;5283017;28;20035;-80
2023/10/07 10:04:00;;;;;;;5.68;1.73;;;;;;;;;;5282930;28;20473;-80
2023/10/07 10:06:40;;;;;;;5.05;1.45;;;;;;;;;;5281706;28;20061;-80
2023/10/07 10:09:14;;;;;;;6.70;1.75;;;;;;;;;;5281352;28;20016;-80
2023/10/07 10:11:55;;;;;;;4.70;1.20;;;;;;;;;;5281211;28;20027;-80
2023/10/07 10:14:56;;;;;;;4.55;1.60;;;;;;;;;;5281311;28;20043;-80
2023/10/07 10:17:33;;;;;;;6.47;1.48;;;;;;;;;;5281043;28;20028;-79
2023/10/07 10:20:12;;;;;;;5.75;1.60;;;;;;;;;;5280529;28;20128;-80
2023/10/07 10:22:50;;;;;;;5.35;1.30;;;;;;;;;;5281171;28;20023;-80
2023/10/07 10:25:55;;;;;;;7.07;1.35;;;;;;;;;;5283815;28;20038;-79
2023/10/07 10:28:27;;;;;;;4.55;1.30;;;;;;;;;;5279576;28;20475;-80
2023/10/07 10:30:58;;;;;;;4.93;1.67;;;;;;;;;;5284611;28;20063;-80
2023/10/07 10:33:31;;;;;;;4.43;1.50;;;;;;;;;;5283959;28;20016;-79
2023/10/07 10:36:03;;;;;;;5.85;1.98;;;;;;;;;;5284506;28;20362;-79
2023/10/07 10:38:36;;;;;;;7.18;2.03;;;;;;;;;;5284798;28;20103;-79
2023/10/07 10:41:10;;;;;;;3.70;1.30;;;;;;;;;;5283819;28;20069;-79
2023/10/07 10:43:42;;;;;;;4.47;1.08;;;;;;;;;;5284496;28;20024;-79
2023/10/07 10:46:13;;;;;;;4.03;1.35;;;;;;;;;;5284430;28;20032;-79
2023/10/07 10:48:44;;;;;;;3.97;1.37;;;;;;;;;;5283366;28;20523;-79
2023/10/07 10:51:16;;;;;;;6.43;1.67;;;;;;;;;;5284721;28;20263;-79
2023/10/07 10:53:47;;;;;;;6.53;1.98;;;;;;;;;;5284163;28;20262;-79
2023/10/07 10:56:18;;;;;;;5.45;1.70;;;;;;;;;;5283819;28;20016;-79
2023/10/07 10:58:53;;;;;;;4.73;1.83;;;;;;;;;;5283769;28;20032;-79
2023/10/07 11:01:25;;;;;;;6.60;2.15;;;;;;;;;;5283646;28;20270;-79
2023/10/07 11:03:56;;;;;;;7.28;1.88;;;;;;;;;;5284259;28;20021;-79
2023/10/07 11:06:28;;;;;;;7.05;1.65;;;;;;;;;;5284271;28;20100;-79
2023/10/07 11:09:03;;;;;;;4.53;1.67;;;;;;;;;;5283472;28;20103;-79
2023/10/07 11:11:35;;;;;;;5.22;1.30;;;;;;;;;;5283977;28;20028;-79
2023/10/07 11:14:12;;;;;;;6.32;1.65;;;;;;;;;;5284125;28;20046;-80
2023/10/07 11:16:45;;;;;;;5.50;1.48;;;;;;;;;;5283121;28;20024;-79
2023/10/07 11:19:18;;;;;;;7.10;1.70;;;;;;;;;;5284213;28;20016;-79
2023/10/07 11:21:49;;;;;;;4.50;1.27;;;;;;;;;;5283480;28;20541;-79
2023/10/07 11:24:30;;;;;;;6.93;1.60;;;;;;;;;;5283545;28;20028;-78
2023/10/07 11:27:02;;;;;;;7.10;2.03;;;;;;;;;;5283930;28;20614;-79
2023/10/07 11:29:34;;;;;;;5.47;1.65;;;;;;;;;;5283056;28;20024;-78
2023/10/07 11:32:06;;;;;;;8.35;2.10;;;;;;;;;;5283472;28;20063;-78
2023/10/07 11:34:43;;;;;;;6.70;2.05;;;;;;;;;;5283611;28;20028;-79
2023/10/07 11:37:18;;;;;;;4.40;1.60;;;;;;;;;;5281577;28;20016;-79
2023/10/07 11:39:50;;;;;;;5.15;1.52;;;;;;;;;;5283381;28;20537;-76
2023/10/07 11:42:22;;;;;;;8.50;1.58;;;;;;;;;;5283885;28;20418;-79
2023/10/07 11:44:54;;;;;;;6.82;1.65;;;;;;;;;;5282227;28;20032;-78
2023/10/07 11:47:27;;;;;;;5.38;2.15;;;;;;;;;;5283114;28;20025;-78
2023/10/07 11:49:58;;;;;;;6.35;1.48;;;;;;;;;;5283350;28;20020;-78
2023/10/07 11:52:29;;;;;;;7.20;1.60;;;;;;;;;;5282443;28;20074;-78
2023/10/07 11:55:00;;;;;;;4.30;1.33;;;;;;;;;;5282981;28;20035;-78
2023/10/07 11:57:33;;;;;;;5.95;1.65;;;;;;;;;;5282109;28;20055;-78
2023/10/07 12:00:22;;;;;;;4.95;1.60;;;;;;;;;;5283039;28;20024;-78
2023/10/07 12:03:00;;;;;;;7.60;2.13;;;;;;;;;;5282761;28;20156;-77
2023/10/07 12:05:31;;;;;;;4.70;1.80;;;;;;;;;;5282022;28;20158;-78
2023/10/07 12:08:02;;;;;;;7.70;1.93;;;;;;;;;;5282824;28;20100;-77
2023/10/07 12:10:33;;;;;;;5.43;1.75;;;;;;;;;;5282798;28;20749;-79
2023/10/07 12:13:07;;;;;;;11.50;1.70;;;;;;;;;;5281785;28;20028;-79
2023/10/07 12:15:42;;;;;;;4.55;1.92;;;;;;;;;;5282561;28;20290;-79
2023/10/07 12:18:13;;;;;;;5.03;1.50;;;;;;;;;;5282621;28;20020;-79
2023/10/07 12:20:44;;;;;;;5.35;2.28;;;;;;;;;;5281843;28;20435;-79
2023/10/07 12:23:15;;;;;;;7.20;1.42;;;;;;;;;;5282855;28;20023;-79
2023/10/07 12:25:48;;;;;;;7.35;2.08;;;;;;;;;;5281336;28;20471;-76
2023/10/07 12:28:19;;;;;;;4.80;1.43;;;;;;;;;;5282732;28;20100;-76
2023/10/07 12:30:51;;;;;;;4.50;1.50;;;;;;;;;;5281772;28;20282;-78
2023/10/07 12:33:23;;;;;;;4.30;1.48;;;;;;;;;;5282094;28;20259;-78
2023/10/07 12:35:54;;;;;;;6.57;1.48;;;;;;;;;;5282246;28;20028;-78
2023/10/07 12:38:25;;;;;;;5.97;1.70;;;;;;;;;;5282178;28;20020;-79
2023/10/07 12:40:57;;;;;;;4.77;1.90;;;;;;;;;;5281182;28;20361;-79
2023/10/07 12:43:28;;;;;;;7.40;3.22;;;;;;;;;;5281912;28;20277;-79
2023/10/07 12:46:00;;;;;;;7.83;2.70;;;;;;;;;;5281830;28;20034;-79
2023/10/07 12:48:31;;;;;;;5.93;2.08;;;;;;;;;;5280892;28;20402;-79
2023/10/07 12:51:06;;;;;;;6.50;2.27;;;;;;;;;;5281923;28;20024;-78
2023/10/07 12:53:38;;;;;;;5.30;1.75;;;;;;;;;;5280989;28;20255;-78
2023/10/07 12:56:12;;;;;;;5.93;2.15;;;;;;;;;;5281977;28;20020;-77
2023/10/07 12:58:46;;;;;;;5.80;2.15;;;;;;;;;;5281699;28;20070;-76
2023/10/07 13:01:19;;;;;;;9.93;2.75;;;;;;;;;;5281484;28;20430;-77
2023/10/07 13:03:52;;;;;;;7.13;2.40;;;;;;;;;;5281488;28;20112;-76
2023/10/07 13:06:23;;;;;;;5.90;1.80;;;;;;;;;;5281914;28;20021;-79
2023/10/07 13:08:57;;;;;;;8.55;2.38;;;;;;;;;;5280910;28;20463;-75
2023/10/07 13:11:28;;;;;;;7.47;2.13;;;;;;;;;;5281765;28;20028;-75
2023/10/07 13:14:00;;;;;;;6.97;1.92;;;;;;;;;;5281743;28;20067;-73
2023/10/07 13:16:37;;;;;;;6.22;2.20;;;;;;;;;;5280850;28;20422;-73
2023/10/07 13:19:09;;;;;;;9.40;2.08;;;;;;;;;;5279928;28;20044;-75
2023/10/07 13:21:41;;;;;;;7.80;1.98;;;;;;;;;;5280739;28;20063;-75
2023/10/07 13:24:12;;;;;;;5.35;1.77;;;;;;;;;;5280896;28;20020;-75
2023/10/07 13:26:44;;;;;;;8.47;3.33;;;;;;;;;;5281356;28;20024;-76
2023/10/07 13:29:15;;;;;;;6.22;2.22;;;;;;;;;;5281247;28;20267;-76
2023/10/07 13:31:46;;;;;;;6.70;1.87;;;;;;;;;;5280882;28;20044;-77
2023/10/07 13:34:19;;;;;;;8.10;2.27;;;;;;;;;;5281745;28;20746;-74
2023/10/07 13:36:51;;;;;;;4.50;1.92;;;;;;;;;;5280477;28;20271;-76
2023/10/07 13:39:24;;;;;;;9.60;2.75;;;;;;;;;;5281724;28;20545;-76
2023/10/07 13:41:56;;;;;;;6.47;2.58;;;;;;;;;;5281527;28;20016;-76
2023/10/07 13:44:27;;;;;;;7.65;2.45;;;;;;;;;;5280375;28;20028;-76
2023/10/07 13:47:00;;;;;;;4.80;1.85;;;;;;;;;;5281385;28;20017;-76
2023/10/07 13:49:31;;;;;;;5.15;2.03;;;;;;;;;;5281280;28;20034;-75
2023/10/07 13:52:05;;;;;;;7.70;2.40;;;;;;;;;;5280510;28;20462;-76
2023/10/07 13:54:46;;;;;;;4.93;1.60;;;;;;;;;;5281121;28;20021;-75
2023/10/07 13:57:21;;;;;;;5.70;2.50;;;;;;;;;;5280963;28;20024;-75
2023/10/07 13:59:53;;;;;;;8.63;2.13;;;;;;;;;;5282760;28;20027;-76
2023/10/07 14:02:27;;;;;;;5.18;1.98;;;;;;;;;;5285323;28;20020;-76
2023/10/07 14:04:58;;;;;;;6.72;2.60;;;;;;;;;;5284405;28;20036;-74
2023/10/07 14:07:29;;;;;;;7.33;2.23;;;;;;;;;;5285329;28;20019;-75
2023/10/07 14:10:01;;;;;;;5.90;2.28;;;;;;;;;;5285149;28;20021;-74
2023/10/07 14:12:32;;;;;;;5.80;1.90;;;;;;;;;;5284279;28;20021;-74
2023/10/07 14:15:04;;;;;;;10.00;2.33;;;;;;;;;;5284997;28;20749;-74
2023/10/07 14:17:35;;;;;;;6.18;1.90;;;;;;;;;;5285162;28;20255;-75
2023/10/07 14:20:13;;;;;;;6.67;1.90;;;;;;;;;;5284308;28;20157;-75
2023/10/07 14:22:46;;;;;;;8.70;2.55;;;;;;;;;;5284858;28;20350;-75
2023/10/07 14:25:19;;;;;;;4.07;1.83;;;;;;;;;;5284384;28;20322;-75
2023/10/07 14:27:50;;;;;;;9.40;2.00;;;;;;;;;;5284738;28;20009;-75
2023/10/07 14:30:24;;;;;;;6.05;1.63;;;;;;;;;;5285267;28;20020;-72
2023/10/07 14:32:56;;;;;;;5.93;1.73;;;;;;;;;;5282522;28;20048;-72
2023/10/07 14:35:27;;;;;;;4.72;1.73;;;;;;;;;;5283429;28;20021;-73
2023/10/07 14:37:58;;;;;;;6.07;2.15;;;;;;;;;;5283310;28;20012;-72
2023/10/07 14:40:35;;;;;;;8.05;2.75;;;;;;;;;;5282599;28;20487;-72
2023/10/07 14:43:06;;;;;;;5.13;1.90;;;;;;;;;;5283488;28;20032;-72
2023/10/07 14:45:37;;;;;;;7.18;1.95;;;;;;;;;;5283288;28;20028;-73
2023/10/07 14:48:09;;;;;;;6.57;1.80;;;;;;;;;;5282412;28;20029;-73
2023/10/07 14:50:40;;;;;;;6.32;1.65;;;;;;;;;;5283569;28;20371;-72
2023/10/07 14:53:14;;;;;;;6.00;1.70;;;;;;;;;;5282691;28;20024;-72
2023/10/07 14:55:45;;;;;;;5.50;1.98;;;;;;;;;;5282917;28;20020;-72
2023/10/07 14:58:19;;;;;;;6.77;2.20;;;;;;;;;;5283465;28;20016;-72
2023/10/07 15:00:52;;;;;;;6.28;2.17;;;;;;;;;;5282019;28;20266;-70
2023/10/07 15:03:24;;;;;;;5.25;2.00;;;;;;;;;;5283379;28;20410;-71
2023/10/07 15:06:04;;;;;;;9.63;2.08;;;;;;;;;;5283066;28;20081;-71
2023/10/07 15:08:38;;;;;;;16.73;2.83;;;;;;;;;;5282392;28;20019;-71
2023/10/07 15:11:15;;;;;;;11.32;2.35;;;;;;;;;;5282615;28;20020;-71
2023/10/07 15:13:49;;;;;;;6.53;1.98;;;;;;;;;;5282777;28;20039;-71
2023/10/07 15:16:20;;;;;;;7.10;1.88;;;;;;;;;;5282216;28;20025;-69
2023/10/07 15:18:52;;;;;;;7.32;1.70;;;;;;;;;;5282582;28;20020;-70
2023/10/07 15:21:24;;;;;;;6.78;2.33;;;;;;;;;;5282055;28;20078;-75
2023/10/07 15:23:55;;;;;;;4.93;1.83;;;;;;;;;;5282852;28;20024;-73
2023/10/07 15:26:26;;;;;;;8.77;2.30;;;;;;;;;;5282856;28;20270;-74
2023/10/07 15:28:57;;;;;;;7.07;2.60;;;;;;;;;;5281954;28;20017;-73
2023/10/07 15:31:29;;;;;;;4.80;1.58;;;;;;;;;;5246598;28;1042569;-74
2023/10/07 15:34:10;;;;;;;5.40;1.65;;;;;;;;;;5283721;28;20025;-73
2023/10/07 15:36:41;;;;;;;9.80;2.60;;;;;;;;;;5283142;28;20023;-74
2023/10/07 15:39:15;;;;;;;5.53;2.00;;;;;;;;;;5283740;28;20024;-74
2023/10/07 15:41:46;;;;;;;6.55;2.00;;;;;;;;;;5283315;28;20115;-74
2023/10/07 15:44:19;;;;;;;4.47;1.60;;;;;;;;;;5282932;28;20115;-73
2023/10/07 15:46:50;;;;;;;6.22;2.13;;;;;;;;;;5283419;28;20368;-74
2023/10/07 15:49:21;;;;;;;5.33;1.83;;;;;;;;;;5283919;28;20017;-74
2023/10/07 15:51:52;;;;;;;8.30;2.17;;;;;;;;;;5282360;28;20270;-74
2023/10/07 15:54:23;;;;;;;4.95;1.98;;;;;;;;;;5283341;28;20271;-74
2023/10/07 15:56:55;;;;;;;3.55;1.40;;;;;;;;;;5282355;28;20013;-73
2023/10/07 15:59:28;;;;;;;3.27;1.40;;;;;;;;;;5283421;28;20089;-74
2023/10/07 16:02:01;;;;;;;5.72;1.98;;;;;;;;;;5283441;28;20270;-74
2023/10/07 16:04:33;;;;;;;5.75;2.08;;;;;;;;;;5282536;28;20063;-74
2023/10/07 16:07:04;;;;;;;4.63;1.80;;;;;;;;;;5283051;28;20025;-74